Terminal Aerodrome Forecast
Issued by NWS New Orleans/Baton Rouge, LA

Home | Current Version | Previous Version | Text Only | Print | Product List | Glossary On
Versions: 1 2 3 4 5 6 7 8 9 10 11 12 13 14 15 16 17
000
FTUS44 KLIX 031700
TAFBTR
TAF
KBTR 031740Z 0318/0418 15009KT P6SM BKN020
     FM040100 16009KT 3SM BR OVC009
     FM040400 17003KT 1/4SM FG OVC002
     FM041600 18008KT P6SM BKN008=

USA.gov is the U.S. government's official web portal to all federal, state and local government web resources and services.